Time;durP1;ratioP1;P1;durP2;ratioP2;P2;SDS_P1;SDS_P2;PMS_P1;PMS_P2;Temp;Humidity;BMP_temperature;BMP_pressure;BME280_temperature;BME280_humidity;BME280_pressure;Samples;Min_cycle;Max_cycle;Signal;HPM_P1;HPM_P2
2020/12/07 00:01:48;;;;;;;13.07;10.53;;;3.80;99.90;;;;;;5125407;27;20441;-87
2020/12/07 00:04:15;;;;;;;16.30;10.80;;;3.80;99.90;;;;;;5144244;27;20476;-87
2020/12/07 00:06:41;;;;;;;11.97;10.67;;;3.80;99.90;;;;;;5138500;27;20445;-87
2020/12/07 00:09:07;;;;;;;15.40;10.37;;;3.70;99.90;;;;;;5123116;27;20522;-87
2020/12/07 00:11:34;;;;;;;13.30;11.30;;;3.70;99.90;;;;;;5125439;27;21159;-87
2020/12/07 00:14:01;;;;;;;13.07;11.50;;;3.70;99.90;;;;;;5124870;27;20449;-87
2020/12/07 00:16:27;;;;;;;13.43;10.90;;;3.70;99.90;;;;;;5123440;27;20441;-87
2020/12/07 00:18:53;;;;;;;16.20;11.90;;;3.70;99.90;;;;;;5127146;27;20468;-87
2020/12/07 00:21:20;;;;;;;15.85;11.68;;;3.60;99.90;;;;;;5124662;27;20445;-87
2020/12/07 00:23:47;;;;;;;12.50;10.40;;;3.60;99.90;;;;;;5125212;27;20206;-87
2020/12/07 00:26:13;;;;;;;11.93;9.90;;;3.60;99.90;;;;;;5125007;27;20489;-87
2020/12/07 00:28:40;;;;;;;11.20;10.20;;;3.60;99.90;;;;;;5124400;27;20499;-86
2020/12/07 00:31:07;;;;;;;10.93;9.13;;;3.50;99.90;;;;;;5136253;27;20514;-86
2020/12/07 00:33:33;;;;;;;11.30;10.20;;;3.60;99.90;;;;;;5128956;27;20432;-87
2020/12/07 00:36:00;;;;;;;11.93;10.63;;;3.60;99.90;;;;;;5132276;27;20432;-86
2020/12/07 00:38:26;;;;;;;13.90;9.97;;;3.50;99.90;;;;;;5126215;27;20441;-87
2020/12/07 00:40:52;;;;;;;11.40;10.10;;;3.50;99.90;;;;;;5125529;27;20842;-87
2020/12/07 00:43:18;;;;;;;11.77;9.97;;;3.60;99.90;;;;;;5123015;27;20441;-88
2020/12/07 00:45:45;;;;;;;13.33;10.67;;;3.70;99.90;;;;;;5125273;27;20434;-87
2020/12/07 00:48:12;;;;;;;11.60;8.60;;;3.70;99.90;;;;;;5124443;27;20441;-87
2020/12/07 00:50:38;;;;;;;11.00;8.90;;;3.70;99.90;;;;;;5124636;27;20481;-86
2020/12/07 00:53:05;;;;;;;10.37;9.27;;;3.70;99.90;;;;;;5122469;27;20440;-87
2020/12/07 00:55:32;;;;;;;15.73;8.73;;;3.70;99.90;;;;;;5124586;27;20469;-87
2020/12/07 00:57:58;;;;;;;12.37;9.23;;;3.70;99.90;;;;;;5123186;27;20436;-87
2020/12/07 01:00:25;;;;;;;10.90;9.07;;;3.80;99.90;;;;;;5124915;27;21162;-87
2020/12/07 01:02:52;;;;;;;13.17;9.40;;;3.80;99.90;;;;;;5123734;27;20499;-88
2020/12/07 01:05:19;;;;;;;10.70;8.03;;;3.80;99.90;;;;;;5121139;27;20426;-87
2020/12/07 01:07:45;;;;;;;9.10;8.17;;;3.80;99.90;;;;;;5121959;27;20491;-87
2020/12/07 01:10:13;;;;;;;10.20;8.20;;;3.80;99.90;;;;;;5123517;27;20984;-87
2020/12/07 01:12:39;;;;;;;7.90;6.90;;;3.80;99.90;;;;;;5119999;27;20880;-86
2020/12/07 01:15:05;;;;;;;10.10;8.33;;;3.80;99.90;;;;;;5123403;27;20466;-87
2020/12/07 01:17:32;;;;;;;9.83;7.83;;;3.80;99.90;;;;;;5123293;27;20444;-87
2020/12/07 01:19:58;;;;;;;8.27;7.13;;;3.70;99.90;;;;;;5124158;27;20839;-87
2020/12/07 01:22:25;;;;;;;9.52;8.05;;;3.70;99.90;;;;;;5122379;27;20946;-87
2020/12/07 01:24:51;;;;;;;8.80;7.90;;;3.70;99.90;;;;;;5123255;27;20279;-87
2020/12/07 01:27:17;;;;;;;12.23;8.27;;;3.70;99.90;;;;;;5121633;27;20451;-87
2020/12/07 01:29:43;;;;;;;8.83;7.23;;;3.70;99.90;;;;;;5123425;27;20453;-88
2020/12/07 01:32:10;;;;;;;10.20;6.70;;;3.70;99.90;;;;;;5124774;27;20475;-87
2020/12/07 01:34:36;;;;;;;8.10;6.70;;;3.70;99.90;;;;;;5127443;27;20943;-86
2020/12/07 01:37:02;;;;;;;8.50;6.47;;;3.70;99.90;;;;;;5127187;27;20883;-87
2020/12/07 01:39:29;;;;;;;14.70;6.63;;;3.70;99.90;;;;;;5125394;27;20456;-87
2020/12/07 01:41:55;;;;;;;7.63;6.50;;;3.70;99.90;;;;;;5121286;27;20438;-87
2020/12/07 01:44:21;;;;;;;10.13;6.38;;;3.70;99.90;;;;;;5121186;27;20441;-86
2020/12/07 01:46:48;;;;;;;9.25;6.97;;;3.80;99.90;;;;;;5123467;27;20187;-87
2020/12/07 01:49:14;;;;;;;8.33;7.37;;;3.80;99.90;;;;;;5122019;27;20217;-87
2020/12/07 01:51:40;;;;;;;7.60;6.50;;;3.80;99.90;;;;;;5123494;27;20468;-87
2020/12/07 01:54:06;;;;;;;8.30;6.27;;;3.80;99.90;;;;;;5121351;27;20464;-87
2020/12/07 01:56:37;;;;;;;8.73;6.60;;;3.70;99.90;;;;;;5123225;27;20438;-87
2020/12/07 01:59:03;;;;;;;7.07;6.00;;;3.80;99.90;;;;;;5121706;27;20463;-87
2020/12/07 02:01:29;;;;;;;8.25;6.43;;;3.80;99.90;;;;;;5123854;27;20941;-87
2020/12/07 02:03:56;;;;;;;12.13;8.13;;;3.80;99.90;;;;;;5121267;27;20202;-87
2020/12/07 02:06:22;;;;;;;8.27;7.47;;;3.80;99.90;;;;;;5120671;27;20987;-87
2020/12/07 02:08:49;;;;;;;6.63;5.93;;;3.90;99.90;;;;;;5121651;27;20473;-87
2020/12/07 02:11:15;;;;;;;6.93;5.93;;;3.80;99.90;;;;;;5123361;27;20474;-87
2020/12/07 02:13:43;;;;;;;6.87;5.80;;;3.80;99.90;;;;;;5122794;27;20451;-87
2020/12/07 02:16:09;;;;;;;8.23;7.40;;;3.80;99.90;;;;;;5132312;27;20435;-88
2020/12/07 02:18:35;;;;;;;9.07;6.77;;;3.80;99.90;;;;;;5145119;27;20469;-88
2020/12/07 02:21:02;;;;;;;7.28;5.25;;;3.80;99.90;;;;;;5124524;27;20441;-86
2020/12/07 02:23:28;;;;;;;7.40;6.70;;;3.80;99.90;;;;;;5121719;27;20588;-87
2020/12/07 02:25:55;;;;;;;7.07;6.38;;;3.80;99.90;;;;;;5122957;27;20498;-88
2020/12/07 02:28:21;;;;;;;6.67;5.57;;;3.80;99.90;;;;;;5121802;27;20228;-87
2020/12/07 02:30:47;;;;;;;8.10;5.90;;;3.80;99.90;;;;;;5121874;27;20487;-88
2020/12/07 02:33:13;;;;;;;5.90;5.30;;;3.80;99.90;;;;;;5120519;27;20440;-86
2020/12/07 02:35:39;;;;;;;7.07;6.37;;;3.80;99.90;;;;;;5123232;27;20920;-86
2020/12/07 02:38:06;;;;;;;6.63;5.43;;;3.80;99.90;;;;;;5122176;27;20461;-88
2020/12/07 02:40:32;;;;;;;5.30;4.83;;;3.90;99.90;;;;;;5122232;27;20460;-87
2020/12/07 02:42:58;;;;;;;6.10;5.50;;;3.90;99.90;;;;;;5121746;27;20440;-87
2020/12/07 02:45:25;;;;;;;6.32;5.07;;;3.90;99.90;;;;;;5129986;27;20439;-86
2020/12/07 02:47:51;;;;;;;8.82;6.13;;;3.90;99.90;;;;;;5138728;27;20204;-86
2020/12/07 02:50:17;;;;;;;6.10;5.50;;;3.90;99.90;;;;;;5125442;27;20214;-86
2020/12/07 02:52:43;;;;;;;7.43;5.65;;;3.90;99.90;;;;;;5138510;27;20536;-86
2020/12/07 02:55:11;;;;;;;5.90;5.17;;;3.90;99.90;;;;;;5124910;27;20199;-86
2020/12/07 02:57:38;;;;;;;5.57;4.95;;;4.00;99.90;;;;;;5121948;27;20494;-87
2020/12/07 03:00:05;;;;;;;7.77;5.20;;;3.90;99.90;;;;;;5121995;27;20251;-86
2020/12/07 03:02:33;;;;;;;5.07;4.37;;;3.90;99.90;;;;;;5122718;27;20452;-86
2020/12/07 03:05:00;;;;;;;5.20;4.70;;;3.90;99.90;;;;;;5123000;27;20454;-86
2020/12/07 03:07:26;;;;;;;6.77;5.37;;;3.90;99.90;;;;;;5120090;28;20479;-87
2020/12/07 03:09:52;;;;;;;4.40;4.00;;;3.90;99.90;;;;;;5122564;27;20474;-87
2020/12/07 03:12:19;;;;;;;4.77;4.30;;;3.90;99.90;;;;;;5120311;27;20490;-87
2020/12/07 03:14:45;;;;;;;5.03;4.63;;;4.00;99.90;;;;;;5123082;27;20441;-85
2020/12/07 03:17:11;;;;;;;3.60;3.30;;;4.00;99.90;;;;;;5122284;27;20439;-87
2020/12/07 03:19:37;;;;;;;4.50;4.13;;;4.00;99.90;;;;;;5119796;27;20510;-87
2020/12/07 03:22:04;;;;;;;4.13;3.83;;;4.00;99.90;;;;;;5120721;27;20867;-87
2020/12/07 03:24:30;;;;;;;4.60;4.20;;;4.00;99.90;;;;;;5122377;28;20812;-86
2020/12/07 03:26:56;;;;;;;5.43;4.17;;;4.00;99.90;;;;;;5125862;27;20893;-87
2020/12/07 03:29:23;;;;;;;4.33;3.90;;;4.00;99.90;;;;;;5125585;27;20893;-87
2020/12/07 03:31:49;;;;;;;4.83;4.40;;;4.00;99.90;;;;;;5125542;27;20476;-87
2020/12/07 03:34:15;;;;;;;4.37;3.93;;;4.00;99.90;;;;;;5127525;27;20433;-87
2020/12/07 03:36:42;;;;;;;4.10;3.80;;;4.00;99.90;;;;;;5125376;27;20445;-86
2020/12/07 03:39:08;;;;;;;3.83;3.53;;;3.90;99.90;;;;;;5126585;27;20536;-87
2020/12/07 03:41:35;;;;;;;4.20;3.72;;;3.90;99.90;;;;;;5124989;27;20475;-87
2020/12/07 03:44:01;;;;;;;5.50;4.27;;;3.90;99.90;;;;;;5125725;27;20253;-88
2020/12/07 03:46:28;;;;;;;3.77;3.43;;;3.90;99.90;;;;;;5124909;27;20454;-87
2020/12/07 03:48:54;;;;;;;4.72;4.07;;;3.90;99.90;;;;;;5126427;27;20467;-85
2020/12/07 03:51:20;;;;;;;3.50;3.20;;;3.90;99.90;;;;;;5125650;27;20712;-86
2020/12/07 03:53:48;;;;;;;5.27;4.03;;;3.90;99.90;;;;;;5126201;27;20439;-86
2020/12/07 03:56:14;;;;;;;4.97;4.00;;;3.90;99.90;;;;;;5123913;27;20437;-86
2020/12/07 03:58:40;;;;;;;11.57;4.07;;;3.90;99.90;;;;;;5125645;27;20812;-87
2020/12/07 04:01:09;;;;;;;4.13;3.60;;;3.90;99.90;;;;;;5124517;27;20440;-86
2020/12/07 04:03:38;;;;;;;6.30;3.70;;;3.90;99.90;;;;;;5126174;27;20954;-86
2020/12/07 04:06:07;;;;;;;3.80;3.50;;;3.90;99.90;;;;;;5125326;27;20998;-87
2020/12/07 04:08:34;;;;;;;4.53;3.60;;;3.90;99.90;;;;;;5125962;27;21041;-87
2020/12/07 04:11:00;;;;;;;4.67;4.00;;;3.90;99.90;;;;;;5124068;27;20969;-87
2020/12/07 04:13:26;;;;;;;4.60;4.20;;;3.90;99.90;;;;;;5125435;27;20443;-87
2020/12/07 04:15:52;;;;;;;5.30;4.80;;;3.90;99.90;;;;;;5121183;27;20949;-86
2020/12/07 04:18:18;;;;;;;4.30;3.90;;;3.90;99.90;;;;;;5125722;27;20448;-87
2020/12/07 04:20:45;;;;;;;4.63;4.23;;;3.90;99.90;;;;;;5127484;27;20807;-87
2020/12/07 04:23:12;;;;;;;6.50;4.60;;;3.90;99.90;;;;;;5125763;27;20443;-87
2020/12/07 04:25:38;;;;;;;6.13;4.97;;;3.90;99.90;;;;;;5121242;27;20445;-87
2020/12/07 04:28:04;;;;;;;4.40;4.00;;;3.90;99.90;;;;;;5124331;27;20860;-87
2020/12/07 04:30:30;;;;;;;5.90;4.20;;;3.90;99.90;;;;;;5122458;27;20516;-87
2020/12/07 04:32:56;;;;;;;4.70;4.30;;;3.90;99.90;;;;;;5124958;27;20441;-88
2020/12/07 04:35:22;;;;;;;4.90;4.37;;;3.90;99.90;;;;;;5120332;27;20451;-87
2020/12/07 04:37:49;;;;;;;5.40;3.90;;;3.90;99.90;;;;;;5126700;27;20502;-87
2020/12/07 04:40:16;;;;;;;5.10;4.60;;;4.00;99.90;;;;;;5134197;27;20526;-88
2020/12/07 04:42:42;;;;;;;9.80;4.67;;;3.90;99.90;;;;;;5135835;27;20442;-87
2020/12/07 04:45:09;;;;;;;5.97;4.40;;;4.00;99.90;;;;;;5122396;27;20478;-87
2020/12/07 04:47:38;;;;;;;5.93;4.40;;;4.00;99.90;;;;;;5124609;27;20428;-87
2020/12/07 04:50:06;;;;;;;9.90;4.50;;;4.00;99.90;;;;;;5123662;27;20483;-88
2020/12/07 04:52:32;;;;;;;6.13;4.23;;;4.00;99.90;;;;;;5124337;27;20900;-87
2020/12/07 04:55:03;;;;;;;6.07;3.60;;;3.90;99.90;;;;;;5123617;27;20496;-87
2020/12/07 04:57:30;;;;;;;5.87;4.03;;;3.90;99.90;;;;;;5124112;27;20431;-87
2020/12/07 04:59:57;;;;;;;5.00;4.30;;;4.00;99.90;;;;;;5124325;27;20456;-87
2020/12/07 05:02:24;;;;;;;4.63;4.00;;;3.90;99.90;;;;;;5121339;27;20976;-87
2020/12/07 05:04:52;;;;;;;4.65;4.25;;;4.00;99.90;;;;;;5123661;27;20905;-87
2020/12/07 05:07:18;;;;;;;4.85;3.92;;;4.00;99.90;;;;;;5124534;27;20678;-86
2020/12/07 05:09:45;;;;;;;10.10;4.77;;;4.00;99.90;;;;;;5123771;27;20221;-87
2020/12/07 05:12:16;;;;;;;6.57;4.50;;;4.00;99.90;;;;;;5132470;27;20474;-88
2020/12/07 05:14:43;;;;;;;5.23;4.40;;;4.00;99.90;;;;;;5139887;27;20437;-86
2020/12/07 05:17:09;;;;;;;10.03;5.40;;;4.00;99.90;;;;;;5132929;27;20433;-86
2020/12/07 05:19:36;;;;;;;6.43;4.87;;;4.00;99.90;;;;;;5135990;27;20458;-87
2020/12/07 05:22:13;;;;;;;4.67;3.93;;;4.00;99.90;;;;;;5124893;27;20445;-87
2020/12/07 05:24:39;;;;;;;6.33;4.70;;;4.00;99.90;;;;;;5122864;27;20494;-87
2020/12/07 05:27:05;;;;;;;6.20;4.60;;;4.00;99.90;;;;;;5122439;27;20444;-87
2020/12/07 05:29:41;;;;;;;6.10;5.50;;;4.00;99.90;;;;;;5124649;27;20962;-88
2020/12/07 05:32:08;;;;;;;12.33;5.03;;;4.00;99.90;;;;;;5119614;27;20477;-87
2020/12/07 05:34:34;;;;;;;12.77;4.93;;;4.00;99.90;;;;;;5123104;27;20438;-87
2020/12/07 05:37:00;;;;;;;8.80;5.17;;;4.10;99.90;;;;;;5123679;27;20449;-87
2020/12/07 05:39:26;;;;;;;5.60;4.87;;;4.10;99.90;;;;;;5123941;27;21174;-87
2020/12/07 05:41:54;;;;;;;6.83;5.00;;;4.00;99.90;;;;;;5122580;27;20437;-87
2020/12/07 05:44:21;;;;;;;6.20;5.40;;;4.00;99.90;;;;;;5124071;27;20854;-87
2020/12/07 05:46:53;;;;;;;7.43;5.33;;;4.00;99.90;;;;;;5123510;27;20449;-87
2020/12/07 05:49:22;;;;;;;6.90;4.20;;;4.00;99.90;;;;;;5122996;27;20471;-87
2020/12/07 05:51:58;;;;;;;7.20;5.30;;;4.00;99.90;;;;;;5123202;27;21047;-88
2020/12/07 05:54:24;;;;;;;9.20;5.13;;;4.00;99.90;;;;;;5120670;27;20436;-86
2020/12/07 05:56:55;;;;;;;6.90;4.97;;;4.00;99.90;;;;;;5124747;27;20937;-87
2020/12/07 05:59:27;;;;;;;5.23;4.63;;;4.00;99.90;;;;;;5122930;27;20469;-86
2020/12/07 06:01:54;;;;;;;5.93;4.67;;;4.00;99.90;;;;;;5121323;27;20855;-86
2020/12/07 06:04:20;;;;;;;6.00;5.40;;;4.10;99.90;;;;;;5122105;27;20504;-86
2020/12/07 06:06:51;;;;;;;6.73;5.10;;;4.10;99.90;;;;;;5122927;27;20901;-86
2020/12/07 06:09:21;;;;;;;6.30;5.13;;;4.10;99.90;;;;;;5121994;27;20471;-86
2020/12/07 06:11:53;;;;;;;6.03;5.30;;;4.00;99.90;;;;;;5124621;27;20464;-86
2020/12/07 06:14:20;;;;;;;7.50;5.30;;;3.90;99.90;;;;;;5121990;27;20493;-86
2020/12/07 06:16:49;;;;;;;7.50;6.40;;;3.90;99.90;;;;;;5124179;27;20434;-86
2020/12/07 06:19:17;;;;;;;6.37;5.50;;;3.90;99.90;;;;;;5122745;27;20469;-87
2020/12/07 06:21:48;;;;;;;8.17;6.13;;;3.90;99.90;;;;;;5123834;27;20426;-87
2020/12/07 06:24:14;;;;;;;9.23;6.37;;;3.90;99.90;;;;;;5123071;27;20527;-87
2020/12/07 06:26:40;;;;;;;7.50;6.80;;;4.00;99.90;;;;;;5124578;27;20437;-87
2020/12/07 06:29:07;;;;;;;9.43;6.40;;;4.00;99.90;;;;;;5121990;27;20460;-87
2020/12/07 06:31:36;;;;;;;7.70;6.10;;;4.00;99.90;;;;;;5124891;27;20487;-86
2020/12/07 06:34:10;;;;;;;8.37;5.83;;;4.00;99.90;;;;;;5123460;27;20440;-86
2020/12/07 06:36:38;;;;;;;10.50;6.67;;;4.00;99.90;;;;;;5122489;27;20473;-87
2020/12/07 06:39:07;;;;;;;7.93;6.53;;;4.00;99.90;;;;;;5123026;27;20476;-87
2020/12/07 06:41:36;;;;;;;11.93;6.27;;;4.10;99.90;;;;;;5122903;27;20531;-86
2020/12/07 06:44:07;;;;;;;10.87;7.37;;;4.10;99.90;;;;;;5123212;27;20848;-86
2020/12/07 06:46:52;;;;;;;9.77;6.73;;;4.10;99.90;;;;;;5122275;27;20446;-86
2020/12/07 06:49:18;;;;;;;9.80;6.83;;;4.10;99.90;;;;;;5122088;27;20462;-86
2020/12/07 06:51:48;;;;;;;13.93;7.80;;;4.10;99.90;;;;;;5123152;27;20475;-87
2020/12/07 06:57:22;;;;;;;9.50;7.23;;;4.20;99.90;;;;;;5105144;27;20544;-87
2020/12/07 07:00:05;;;;;;;8.43;7.30;;;4.20;99.90;;;;;;5121022;27;20467;-86
2020/12/07 07:02:31;;;;;;;9.20;7.20;;;4.20;99.90;;;;;;5126918;27;20432;-86
2020/12/07 07:04:59;;;;;;;10.33;7.50;;;4.20;99.90;;;;;;5135756;27;20442;-86
2020/12/07 07:07:28;;;;;;;18.10;9.30;;;4.20;99.90;;;;;;5123322;27;20429;-87
2020/12/07 07:09:54;;;;;;;12.27;9.13;;;4.20;99.90;;;;;;5121769;27;20469;-86
2020/12/07 07:12:21;;;;;;;17.53;9.60;;;4.30;99.90;;;;;;5122204;27;20477;-87
2020/12/07 07:14:52;;;;;;;23.03;11.23;;;4.30;99.90;;;;;;5121352;27;20501;-86
2020/12/07 07:17:18;;;;;;;11.17;9.13;;;4.30;99.90;;;;;;5129147;27;20484;-86
2020/12/07 07:19:45;;;;;;;11.70;9.27;;;4.30;99.90;;;;;;5123546;27;20450;-87
2020/12/07 07:22:12;;;;;;;15.37;8.70;;;4.40;99.90;;;;;;5122052;27;20486;-86
2020/12/07 07:24:46;;;;;;;13.67;11.23;;;4.40;99.90;;;;;;5119905;27;20437;-87
2020/12/07 07:29:57;;;;;;;10.27;7.40;;;4.40;99.90;;;;;;5119178;27;20439;-86
2020/12/07 07:32:23;;;;;;;12.93;8.03;;;4.40;99.90;;;;;;5125648;28;20473;-86
2020/12/07 07:34:50;;;;;;;9.00;6.10;;;4.50;99.90;;;;;;5124059;27;20443;-86
2020/12/07 07:37:17;;;;;;;10.60;6.77;;;4.50;99.90;;;;;;5126623;27;20956;-86
2020/12/07 07:39:45;;;;;;;7.70;6.53;;;4.60;99.90;;;;;;5121082;28;20464;-87
2020/12/07 07:42:12;;;;;;;9.70;6.93;;;4.60;99.90;;;;;;5123095;27;20453;-86
2020/12/07 07:44:40;;;;;;;7.60;6.80;;;4.60;99.90;;;;;;5119858;27;20433;-86
2020/12/07 07:47:11;;;;;;;7.50;6.80;;;4.60;99.90;;;;;;5118083;27;20968;-87
2020/12/07 07:49:59;;;;;;;7.50;6.47;;;4.60;99.90;;;;;;5122454;27;20472;-86
2020/12/07 08:18:04;;;;;;;7.13;5.70;;;5.50;99.90;;;;;;5126855;27;20437;-86
2020/12/07 08:20:32;;;;;;;7.37;5.80;;;5.70;99.90;;;;;;5128740;27;20977;-86
2020/12/07 08:23:00;;;;;;;6.90;5.40;;;5.70;99.90;;;;;;5126052;27;20462;-85
2020/12/07 08:25:46;;;;;;;7.03;5.70;;;5.70;99.90;;;;;;5125180;27;20934;-86
2020/12/07 08:28:20;;;;;;;6.40;5.80;;;5.80;99.90;;;;;;5126749;27;20433;-85
2020/12/07 08:31:01;;;;;;;7.07;5.53;;;5.90;99.90;;;;;;5123497;27;20491;-87
2020/12/07 08:33:28;;;;;;;8.10;5.80;;;6.00;99.90;;;;;;5123871;27;20425;-87
2020/12/07 08:35:55;;;;;;;6.70;4.97;;;6.10;99.90;;;;;;5128059;27;20922;-87
2020/12/07 08:38:25;;;;;;;8.10;6.20;;;6.20;99.90;;;;;;5125430;27;20466;-87
2020/12/07 08:40:51;;;;;;;7.63;5.20;;;6.30;99.90;;;;;;5125470;27;20425;-86
2020/12/07 08:43:18;;;;;;;10.00;6.10;;;6.40;99.90;;;;;;5126522;27;20437;-87
2020/12/07 08:45:45;;;;;;;12.40;6.20;;;6.40;99.90;;;;;;5126761;27;20430;-86
2020/12/07 08:48:11;;;;;;;8.37;5.87;;;6.50;99.90;;;;;;5124451;27;20452;-87
2020/12/07 08:50:37;;;;;;;6.40;5.80;;;6.50;99.90;;;;;;5122911;27;20433;-86
2020/12/07 08:53:03;;;;;;;6.00;5.40;;;6.50;99.90;;;;;;5122113;27;21004;-87
2020/12/07 08:55:29;;;;;;;8.50;7.03;;;6.70;99.90;;;;;;5126931;27;20445;-86
2020/12/07 08:57:56;;;;;;;6.00;5.47;;;6.80;99.90;;;;;;5121732;27;20501;-87
2020/12/07 09:00:23;;;;;;;10.87;6.30;;;6.80;99.90;;;;;;5124893;27;20456;-86
2020/12/07 09:02:49;;;;;;;8.70;6.80;;;6.70;99.90;;;;;;5122725;27;20437;-86
2020/12/07 09:05:15;;;;;;;6.33;5.80;;;6.80;99.90;;;;;;5122454;27;20437;-89
2020/12/07 09:07:41;;;;;;;9.13;7.13;;;7.00;99.90;;;;;;5123100;27;20453;-85
2020/12/07 09:10:07;;;;;;;6.67;6.03;;;7.20;99.90;;;;;;5122255;27;20469;-87
2020/12/07 09:12:33;;;;;;;6.27;5.67;;;7.30;99.90;;;;;;5124466;27;20470;-86
2020/12/07 09:14:59;;;;;;;6.73;5.30;;;7.60;99.90;;;;;;5124069;27;20440;-86
2020/12/07 09:17:26;;;;;;;8.17;5.47;;;7.50;99.90;;;;;;5126171;27;20950;-86
2020/12/07 09:19:52;;;;;;;6.80;6.10;;;7.70;99.90;;;;;;5135694;27;20445;-87
2020/12/07 09:22:19;;;;;;;7.47;6.30;;;7.70;99.90;;;;;;5139897;27;20433;-87
2020/12/07 09:24:45;;;;;;;9.67;6.13;;;7.70;99.90;;;;;;5126113;27;20463;-86
2020/12/07 09:27:11;;;;;;;6.30;5.70;;;8.00;99.90;;;;;;5120029;27;20498;-87
2020/12/07 09:29:37;;;;;;;7.93;6.30;;;8.10;99.90;;;;;;5121948;27;20453;-87
2020/12/07 09:32:03;;;;;;;7.33;6.63;;;8.30;99.90;;;;;;5117016;27;20993;-86
2020/12/07 09:34:30;;;;;;;6.50;5.90;;;8.30;99.90;;;;;;5124018;27;20472;-87
2020/12/07 09:36:56;;;;;;;8.40;5.80;;;8.30;99.90;;;;;;5125304;27;20453;-88
2020/12/07 09:39:22;;;;;;;6.37;5.13;;;8.70;99.90;;;;;;5120161;27;20465;-87
2020/12/07 09:41:49;;;;;;;6.97;6.27;;;9.20;99.90;;;;;;5124239;27;20438;-87
2020/12/07 09:44:15;;;;;;;5.93;5.43;;;9.20;99.90;;;;;;5124446;27;20476;-87
2020/12/07 09:46:41;;;;;;;6.43;5.87;;;9.30;99.90;;;;;;5124187;27;20430;-86
2020/12/07 09:49:07;;;;;;;6.63;5.90;;;9.20;99.90;;;;;;5118869;27;20450;-87
2020/12/07 09:51:34;;;;;;;6.20;5.60;;;9.50;99.90;;;;;;5133717;27;20483;-88
2020/12/07 09:54:00;;;;;;;7.03;5.10;;;10.10;99.90;;;;;;5125625;27;20433;-87
2020/12/07 09:56:29;;;;;;;6.80;5.20;;;10.90;99.90;;;;;;5123115;27;20442;-88
2020/12/07 09:58:56;;;;;;;6.83;5.90;;;11.30;99.90;;;;;;5121132;27;20465;-88
2020/12/07 10:01:22;;;;;;;6.67;5.97;;;11.30;99.90;;;;;;5121314;27;20972;-88
2020/12/07 10:03:48;;;;;;;7.70;7.10;;;11.40;99.50;;;;;;5122946;27;20816;-88
2020/12/07 10:06:14;;;;;;;7.03;5.60;;;11.60;99.10;;;;;;5122679;27;20950;-88
2020/12/07 10:08:41;;;;;;;9.90;6.57;;;11.40;98.80;;;;;;5122911;27;20477;-88
2020/12/07 10:11:07;;;;;;;8.60;6.10;;;11.10;99.10;;;;;;5120551;27;20489;-88
2020/12/07 10:13:34;;;;;;;6.27;5.77;;;10.70;99.60;;;;;;5121664;27;20480;-88
2020/12/07 10:16:00;;;;;;;5.60;5.10;;;10.60;99.90;;;;;;5123264;27;20491;-88
2020/12/07 10:18:26;;;;;;;8.37;4.67;;;10.50;99.90;;;;;;5121538;27;20430;-87
2020/12/07 10:20:52;;;;;;;7.07;6.07;;;10.60;99.90;;;;;;5121105;27;21091;-88
2020/12/07 10:23:18;;;;;;;6.60;5.83;;;10.90;99.90;;;;;;5122189;27;20893;-88
2020/12/07 10:25:49;;;;;;;7.43;6.70;;;11.70;98.80;;;;;;5124607;27;20983;-89
2020/12/07 10:28:15;;;;;;;6.20;4.80;;;12.40;97.60;;;;;;5127285;27;20462;-87
2020/12/07 10:30:41;;;;;;;5.73;5.23;;;12.70;96.70;;;;;;5125944;27;20440;-89
2020/12/07 10:33:07;;;;;;;5.87;5.27;;;13.40;95.70;;;;;;5120827;27;20480;-88
2020/12/07 10:35:34;;;;;;;6.07;5.57;;;13.50;94.80;;;;;;5123011;27;20433;-88
2020/12/07 10:38:00;;;;;;;5.40;4.90;;;13.70;94.20;;;;;;5121381;27;20862;-88
2020/12/07 10:40:26;;;;;;;5.97;5.27;;;13.80;93.50;;;;;;5123363;27;20463;-88
2020/12/07 10:42:53;;;;;;;5.27;4.77;;;13.90;93.20;;;;;;5123406;27;20448;-91
2020/12/07 10:45:19;;;;;;;5.40;4.90;;;15.00;91.80;;;;;;5136832;27;20430;-91
2020/12/07 10:47:45;;;;;;;5.30;4.73;;;15.70;90.90;;;;;;5131343;27;20441;-88
2020/12/07 10:50:12;;;;;;;5.90;5.00;;;15.40;89.10;;;;;;5123512;27;20463;-90
2020/12/07 10:52:38;;;;;;;7.83;4.73;;;15.20;90.00;;;;;;5126060;27;20475;-91
2020/12/07 10:55:04;;;;;;;5.20;4.70;;;16.40;86.40;;;;;;5124089;27;20416;-89
2020/12/07 10:57:35;;;;;;;6.63;5.10;;;16.90;83.80;;;;;;5123579;27;20452;-92
2020/12/07 11:00:02;;;;;;;5.77;4.80;;;18.10;80.90;;;;;;5124118;27;20480;-89
2020/12/07 11:02:28;;;;;;;6.60;4.53;;;18.70;76.40;;;;;;5122533;27;20473;-91
2020/12/07 11:04:54;;;;;;;5.10;4.60;;;19.20;73.30;;;;;;5124215;27;20438;-88
2020/12/07 11:07:23;;;;;;;6.17;5.03;;;19.80;71.80;;;;;;5123518;27;20850;-89
2020/12/07 11:09:49;;;;;;;5.80;5.30;;;20.20;67.90;;;;;;5122674;27;20519;-89
2020/12/07 11:12:18;;;;;;;5.80;4.77;;;19.80;65.90;;;;;;5122019;27;20433;-88
2020/12/07 11:14:45;;;;;;;4.90;4.43;;;18.60;67.20;;;;;;5131804;27;20441;-87
2020/12/07 11:17:12;;;;;;;4.37;4.07;;;18.20;68.60;;;;;;5121006;27;20482;-88
2020/12/07 11:19:42;;;;;;;4.73;4.23;;;18.10;70.20;;;;;;5120743;27;21228;-88
2020/12/07 11:22:08;;;;;;;4.73;4.33;;;18.20;69.90;;;;;;5121405;27;20491;-88
2020/12/07 11:24:34;;;;;;;5.37;4.83;;;17.80;68.90;;;;;;5121209;27;20456;-87
2020/12/07 11:27:00;;;;;;;4.23;3.90;;;17.30;70.50;;;;;;5121417;27;20442;-88
2020/12/07 11:29:27;;;;;;;3.80;3.50;;;17.70;71.70;;;;;;5123010;28;20462;-87
2020/12/07 11:31:53;;;;;;;4.87;4.13;;;19.10;68.60;;;;;;5122469;27;20438;-88
2020/12/07 11:34:20;;;;;;;4.80;4.40;;;19.40;66.60;;;;;;5119857;27;20956;-88
2020/12/07 11:36:46;;;;;;;4.27;3.87;;;18.20;67.00;;;;;;5121288;27;20502;-88
2020/12/07 11:39:25;;;;;;;4.30;3.90;;;16.60;69.00;;;;;;5122547;28;20457;-89
2020/12/07 11:42:01;;;;;;;4.30;3.90;;;14.60;73.40;;;;;;5121788;28;20555;-88
2020/12/07 11:44:27;;;;;;;6.53;4.37;;;13.40;80.30;;;;;;5133167;28;20438;-85
2020/12/07 11:46:56;;;;;;;4.77;4.37;;;13.10;80.70;;;;;;5138146;27;20441;-87
2020/12/07 11:49:23;;;;;;;5.13;4.63;;;12.70;82.80;;;;;;5128204;27;20547;-87
2020/12/07 11:51:49;;;;;;;5.73;3.73;;;12.00;84.30;;;;;;5133188;27;20823;-87
2020/12/07 11:54:15;;;;;;;5.70;4.10;;;11.60;87.20;;;;;;5121612;27;20435;-87
2020/12/07 11:56:43;;;;;;;5.37;4.97;;;11.30;88.40;;;;;;5130613;27;20440;-87
2020/12/07 11:59:10;;;;;;;8.13;4.33;;;11.50;90.10;;;;;;5122613;28;20491;-84
2020/12/07 12:01:37;;;;;;;5.03;4.63;;;11.80;89.10;;;;;;5121838;28;20450;-87
2020/12/07 12:04:04;;;;;;;4.80;4.40;;;11.80;89.40;;;;;;5110566;27;20513;-87
2020/12/07 12:06:34;;;;;;;4.50;4.10;;;11.50;90.30;;;;;;5140380;27;20437;-86
2020/12/07 12:09:03;;;;;;;4.07;3.77;;;11.20;90.70;;;;;;5118608;27;20475;-85
2020/12/07 12:11:31;;;;;;;3.67;3.33;;;11.40;90.40;;;;;;5116845;28;20437;-84
2020/12/07 12:13:58;;;;;;;4.20;3.80;;;11.10;90.30;;;;;;5115955;28;20790;-85
2020/12/07 12:16:27;;;;;;;3.73;3.33;;;10.50;90.80;;;;;;5115563;28;20429;-85
2020/12/07 12:18:53;;;;;;;4.73;3.67;;;10.10;92.00;;;;;;5101350;28;20470;-85
2020/12/07 12:21:19;;;;;;;3.77;3.37;;;9.80;93.00;;;;;;5096053;28;20442;-86
2020/12/07 12:23:47;;;;;;;5.50;4.57;;;9.60;94.00;;;;;;5095196;28;20470;-85
2020/12/07 12:26:13;;;;;;;4.13;3.73;;;9.40;94.40;;;;;;5102889;28;21163;-86
2020/12/07 12:28:39;;;;;;;5.50;4.20;;;9.30;94.80;;;;;;5115381;28;20469;-87
2020/12/07 12:31:06;;;;;;;4.80;4.37;;;9.20;95.10;;;;;;5117404;28;20746;-84
2020/12/07 12:33:32;;;;;;;5.50;4.10;;;8.80;95.70;;;;;;5117544;28;20433;-85
2020/12/07 12:35:59;;;;;;;6.63;4.80;;;8.80;96.30;;;;;;5114272;28;20858;-85
2020/12/07 12:38:25;;;;;;;5.70;5.00;;;8.60;96.60;;;;;;5119742;28;20430;-85
2020/12/07 12:40:53;;;;;;;5.77;4.47;;;8.30;97.00;;;;;;5118250;28;20985;-85
2020/12/07 12:43:19;;;;;;;6.00;4.50;;;8.10;98.00;;;;;;5133577;27;20480;-86
2020/12/07 12:45:45;;;;;;;6.27;4.70;;;8.00;98.40;;;;;;5132911;27;20448;-85
2020/12/07 12:48:11;;;;;;;5.57;4.37;;;7.90;98.80;;;;;;5116193;28;20453;-86
2020/12/07 12:50:37;;;;;;;4.50;4.10;;;8.00;99.20;;;;;;5114444;28;20835;-86
2020/12/07 12:53:04;;;;;;;4.20;3.80;;;8.60;98.40;;;;;;5095910;28;20500;-86
2020/12/07 12:55:30;;;;;;;4.17;3.60;;;8.90;98.10;;;;;;5106259;27;20436;-85
2020/12/07 12:57:57;;;;;;;6.30;3.53;;;9.20;97.60;;;;;;5123463;27;20452;-87
2020/12/07 13:00:23;;;;;;;4.80;3.70;;;9.00;96.70;;;;;;5125269;27;20961;-87
2020/12/07 13:02:50;;;;;;;4.13;3.50;;;8.90;97.00;;;;;;5121864;27;20481;-86
2020/12/07 13:05:16;;;;;;;3.93;3.60;;;8.70;97.20;;;;;;5121052;27;20512;-85
2020/12/07 13:07:42;;;;;;;3.90;3.50;;;8.60;97.80;;;;;;5124932;27;20439;-86
2020/12/07 13:10:09;;;;;;;3.50;3.30;;;8.50;97.90;;;;;;5126340;27;20464;-85
2020/12/07 13:12:35;;;;;;;3.87;3.57;;;8.20;97.50;;;;;;5129780;27;20434;-86
2020/12/07 13:15:02;;;;;;;5.57;3.93;;;8.10;98.10;;;;;;5119130;27;20448;-86
2020/12/07 13:17:31;;;;;;;3.50;3.20;;;8.10;98.20;;;;;;5122626;27;20458;-86
2020/12/07 13:20:02;;;;;;;3.77;3.47;;;8.20;97.60;;;;;;5131320;27;21052;-87
2020/12/07 13:22:34;;;;;;;6.73;4.10;;;8.20;97.50;;;;;;5122404;27;20909;-87
2020/12/07 13:25:04;;;;;;;3.50;2.83;;;8.70;98.30;;;;;;5113792;27;20955;-87